sensor_id;sensor_type;location;lat;lon;timestamp;P1;durP1;ratioP1;P2;durP2;ratioP2
36629;SDS011;36256;42.154;23.002;2023-02-15T00:01:53;38.05;;;20.85;;
36629;SDS011;36256;42.154;23.002;2023-02-15T00:06:48;36.72;;;19.73;;
36629;SDS011;36256;42.154;23.002;2023-02-15T00:11:42;35.10;;;19.65;;
36629;SDS011;36256;42.154;23.002;2023-02-15T00:14:15;34.17;;;20.25;;
36629;SDS011;36256;42.154;23.002;2023-02-15T00:16:51;35.20;;;20.45;;
36629;SDS011;36256;42.154;23.002;2023-02-15T00:19:20;38.97;;;20.80;;
36629;SDS011;36256;42.154;23.002;2023-02-15T00:21:47;33.65;;;20.02;;
36629;SDS011;36256;42.154;23.002;2023-02-15T00:24:15;34.15;;;20.42;;
36629;SDS011;36256;42.154;23.002;2023-02-15T00:26:43;35.00;;;21.05;;
36629;SDS011;36256;42.154;23.002;2023-02-15T00:29:10;35.78;;;20.83;;
36629;SDS011;36256;42.154;23.002;2023-02-15T00:31:38;34.13;;;20.50;;
36629;SDS011;36256;42.154;23.002;2023-02-15T00:34:06;37.10;;;20.38;;
36629;SDS011;36256;42.154;23.002;2023-02-15T00:36:43;34.17;;;19.88;;
36629;SDS011;36256;42.154;23.002;2023-02-15T00:39:11;36.40;;;20.38;;
36629;SDS011;36256;42.154;23.002;2023-02-15T00:41:38;34.67;;;21.17;;
36629;SDS011;36256;42.154;23.002;2023-02-15T00:46:32;37.38;;;20.25;;
36629;SDS011;36256;42.154;23.002;2023-02-15T00:48:59;35.63;;;21.60;;
36629;SDS011;36256;42.154;23.002;2023-02-15T00:51:26;27.35;;;16.30;;
36629;SDS011;36256;42.154;23.002;2023-02-15T00:53:52;38.15;;;21.60;;
36629;SDS011;36256;42.154;23.002;2023-02-15T00:56:19;35.40;;;21.20;;
36629;SDS011;36256;42.154;23.002;2023-02-15T00:58:46;37.28;;;21.77;;
36629;SDS011;36256;42.154;23.002;2023-02-15T01:01:13;42.75;;;22.55;;
36629;SDS011;36256;42.154;23.002;2023-02-15T01:03:42;40.65;;;23.10;;
36629;SDS011;36256;42.154;23.002;2023-02-15T01:06:10;37.10;;;22.42;;
36629;SDS011;36256;42.154;23.002;2023-02-15T01:08:37;38.00;;;21.60;;
36629;SDS011;36256;42.154;23.002;2023-02-15T01:11:12;35.60;;;21.13;;
36629;SDS011;36256;42.154;23.002;2023-02-15T01:13:41;38.25;;;21.88;;
36629;SDS011;36256;42.154;23.002;2023-02-15T01:16:08;37.88;;;23.50;;
36629;SDS011;36256;42.154;23.002;2023-02-15T01:18:35;39.58;;;22.98;;
36629;SDS011;36256;42.154;23.002;2023-02-15T01:21:09;37.70;;;22.33;;
36629;SDS011;36256;42.154;23.002;2023-02-15T01:23:40;38.30;;;22.70;;
36629;SDS011;36256;42.154;23.002;2023-02-15T01:26:08;35.63;;;21.33;;
36629;SDS011;36256;42.154;23.002;2023-02-15T01:28:38;37.17;;;21.30;;
36629;SDS011;36256;42.154;23.002;2023-02-15T01:31:06;38.60;;;22.08;;
36629;SDS011;36256;42.154;23.002;2023-02-15T01:33:42;38.22;;;21.92;;
36629;SDS011;36256;42.154;23.002;2023-02-15T01:36:09;36.47;;;21.42;;
36629;SDS011;36256;42.154;23.002;2023-02-15T01:42:00;32.92;;;20.20;;
36629;SDS011;36256;42.154;23.002;2023-02-15T01:44:52;35.60;;;20.98;;
36629;SDS011;36256;42.154;23.002;2023-02-15T01:47:22;37.47;;;20.88;;
36629;SDS011;36256;42.154;23.002;2023-02-15T01:49:58;37.03;;;20.65;;
36629;SDS011;36256;42.154;23.002;2023-02-15T01:52:30;35.80;;;20.83;;
36629;SDS011;36256;42.154;23.002;2023-02-15T01:54:56;35.08;;;21.10;;
36629;SDS011;36256;42.154;23.002;2023-02-15T01:57:23;37.05;;;21.00;;
36629;SDS011;36256;42.154;23.002;2023-02-15T01:59:53;35.95;;;20.90;;
36629;SDS011;36256;42.154;23.002;2023-02-15T02:02:25;34.97;;;21.17;;
36629;SDS011;36256;42.154;23.002;2023-02-15T02:04:58;36.40;;;20.98;;
36629;SDS011;36256;42.154;23.002;2023-02-15T02:07:29;33.30;;;19.85;;
36629;SDS011;36256;42.154;23.002;2023-02-15T02:10:01;36.05;;;20.90;;
36629;SDS011;36256;42.154;23.002;2023-02-15T02:12:28;36.75;;;21.08;;
36629;SDS011;36256;42.154;23.002;2023-02-15T02:37:19;32.78;;;19.10;;
36629;SDS011;36256;42.154;23.002;2023-02-15T02:39:59;36.20;;;19.38;;
36629;SDS011;36256;42.154;23.002;2023-02-15T02:42:39;33.88;;;19.40;;
36629;SDS011;36256;42.154;23.002;2023-02-15T02:45:13;34.20;;;19.38;;
36629;SDS011;36256;42.154;23.002;2023-02-15T02:47:47;35.35;;;19.80;;
36629;SDS011;36256;42.154;23.002;2023-02-15T02:50:27;34.45;;;20.35;;
36629;SDS011;36256;42.154;23.002;2023-02-15T02:52:55;35.08;;;20.48;;
36629;SDS011;36256;42.154;23.002;2023-02-15T03:00:45;37.05;;;19.10;;
36629;SDS011;36256;42.154;23.002;2023-02-15T03:06:25;33.42;;;18.88;;
36629;SDS011;36256;42.154;23.002;2023-02-15T03:09:03;33.17;;;18.92;;
36629;SDS011;36256;42.154;23.002;2023-02-15T03:11:41;37.05;;;18.90;;
36629;SDS011;36256;42.154;23.002;2023-02-15T03:14:12;33.22;;;18.55;;
36629;SDS011;36256;42.154;23.002;2023-02-15T03:16:41;32.50;;;19.33;;
36629;SDS011;36256;42.154;23.002;2023-02-15T03:19:16;40.17;;;22.67;;
36629;SDS011;36256;42.154;23.002;2023-02-15T03:21:51;38.75;;;21.67;;
36629;SDS011;36256;42.154;23.002;2023-02-15T03:24:41;39.75;;;21.98;;
36629;SDS011;36256;42.154;23.002;2023-02-15T03:27:21;34.42;;;19.55;;
36629;SDS011;36256;42.154;23.002;2023-02-15T03:29:53;34.88;;;19.67;;
36629;SDS011;36256;42.154;23.002;2023-02-15T03:32:24;35.05;;;20.55;;
36629;SDS011;36256;42.154;23.002;2023-02-15T03:34:53;34.63;;;19.77;;
36629;SDS011;36256;42.154;23.002;2023-02-15T03:37:37;32.17;;;18.95;;
36629;SDS011;36256;42.154;23.002;2023-02-15T03:40:16;35.13;;;19.45;;
36629;SDS011;36256;42.154;23.002;2023-02-15T03:43:22;36.10;;;19.25;;
36629;SDS011;36256;42.154;23.002;2023-02-15T03:45:57;34.40;;;19.38;;
36629;SDS011;36256;42.154;23.002;2023-02-15T03:48:37;34.20;;;19.30;;
36629;SDS011;36256;42.154;23.002;2023-02-15T03:51:19;39.08;;;18.70;;
36629;SDS011;36256;42.154;23.002;2023-02-15T03:54:02;33.58;;;18.92;;
36629;SDS011;36256;42.154;23.002;2023-02-15T03:57:04;34.72;;;18.77;;
36629;SDS011;36256;42.154;23.002;2023-02-15T03:59:51;32.78;;;18.85;;
36629;SDS011;36256;42.154;23.002;2023-02-15T04:02:42;32.60;;;18.70;;
36629;SDS011;36256;42.154;23.002;2023-02-15T04:05:16;31.17;;;18.02;;
36629;SDS011;36256;42.154;23.002;2023-02-15T04:07:43;32.03;;;18.98;;
36629;SDS011;36256;42.154;23.002;2023-02-15T04:10:10;33.67;;;18.42;;
36629;SDS011;36256;42.154;23.002;2023-02-15T04:12:55;34.35;;;19.52;;
36629;SDS011;36256;42.154;23.002;2023-02-15T04:15:22;33.58;;;18.88;;
36629;SDS011;36256;42.154;23.002;2023-02-15T04:18:07;31.95;;;18.58;;
36629;SDS011;36256;42.154;23.002;2023-02-15T04:20:34;35.33;;;19.38;;
36629;SDS011;36256;42.154;23.002;2023-02-15T04:23:19;31.90;;;18.10;;
36629;SDS011;36256;42.154;23.002;2023-02-15T04:26:05;35.22;;;19.05;;
36629;SDS011;36256;42.154;23.002;2023-02-15T04:28:32;34.65;;;17.45;;
36629;SDS011;36256;42.154;23.002;2023-02-15T04:30:58;22.30;;;13.60;;
36629;SDS011;36256;42.154;23.002;2023-02-15T04:33:25;23.17;;;13.48;;
36629;SDS011;36256;42.154;23.002;2023-02-15T04:35:51;23.83;;;14.02;;
36629;SDS011;36256;42.154;23.002;2023-02-15T04:38:18;34.05;;;18.52;;
36629;SDS011;36256;42.154;23.002;2023-02-15T04:40:48;31.52;;;18.77;;
36629;SDS011;36256;42.154;23.002;2023-02-15T04:43:15;29.38;;;17.13;;
36629;SDS011;36256;42.154;23.002;2023-02-15T04:45:47;24.58;;;13.88;;
36629;SDS011;36256;42.154;23.002;2023-02-15T04:48:15;29.80;;;17.00;;
36629;SDS011;36256;42.154;23.002;2023-02-15T04:50:43;28.10;;;17.35;;
36629;SDS011;36256;42.154;23.002;2023-02-15T04:53:10;30.75;;;17.90;;
36629;SDS011;36256;42.154;23.002;2023-02-15T04:55:37;29.20;;;17.00;;
36629;SDS011;36256;42.154;23.002;2023-02-15T04:58:03;28.35;;;15.38;;
36629;SDS011;36256;42.154;23.002;2023-02-15T05:00:30;29.70;;;17.45;;
36629;SDS011;36256;42.154;23.002;2023-02-15T05:02:57;32.22;;;18.17;;
36629;SDS011;36256;42.154;23.002;2023-02-15T05:05:23;28.73;;;17.27;;
36629;SDS011;36256;42.154;23.002;2023-02-15T05:07:50;22.67;;;13.50;;
36629;SDS011;36256;42.154;23.002;2023-02-15T05:10:16;22.67;;;12.43;;
36629;SDS011;36256;42.154;23.002;2023-02-15T05:12:43;31.25;;;17.73;;
36629;SDS011;36256;42.154;23.002;2023-02-15T05:15:10;33.92;;;17.92;;
36629;SDS011;36256;42.154;23.002;2023-02-15T05:17:37;29.30;;;17.25;;
36629;SDS011;36256;42.154;23.002;2023-02-15T05:20:03;24.50;;;13.85;;
36629;SDS011;36256;42.154;23.002;2023-02-15T05:22:30;27.98;;;16.73;;
36629;SDS011;36256;42.154;23.002;2023-02-15T05:24:57;28.95;;;17.13;;
36629;SDS011;36256;42.154;23.002;2023-02-15T05:27:42;30.67;;;17.67;;
36629;SDS011;36256;42.154;23.002;2023-02-15T05:30:30;28.67;;;16.67;;
36629;SDS011;36256;42.154;23.002;2023-02-15T05:32:57;28.23;;;16.48;;
36629;SDS011;36256;42.154;23.002;2023-02-15T05:35:23;27.58;;;15.93;;
36629;SDS011;36256;42.154;23.002;2023-02-15T05:37:50;30.75;;;17.27;;
36629;SDS011;36256;42.154;23.002;2023-02-15T05:40:16;31.45;;;17.55;;
36629;SDS011;36256;42.154;23.002;2023-02-15T05:42:43;28.88;;;16.35;;
36629;SDS011;36256;42.154;23.002;2023-02-15T05:45:10;32.67;;;17.58;;
36629;SDS011;36256;42.154;23.002;2023-02-15T05:47:36;20.77;;;12.10;;
36629;SDS011;36256;42.154;23.002;2023-02-15T05:50:03;27.88;;;15.65;;
36629;SDS011;36256;42.154;23.002;2023-02-15T05:52:30;26.63;;;16.10;;
36629;SDS011;36256;42.154;23.002;2023-02-15T05:54:57;31.75;;;17.13;;
36629;SDS011;36256;42.154;23.002;2023-02-15T05:57:26;25.25;;;15.35;;
36629;SDS011;36256;42.154;23.002;2023-02-15T05:59:53;30.40;;;16.23;;
36629;SDS011;36256;42.154;23.002;2023-02-15T06:02:19;28.67;;;16.48;;
36629;SDS011;36256;42.154;23.002;2023-02-15T06:04:46;28.73;;;16.27;;
36629;SDS011;36256;42.154;23.002;2023-02-15T06:07:13;27.13;;;16.02;;
36629;SDS011;36256;42.154;23.002;2023-02-15T06:09:39;26.80;;;16.60;;
36629;SDS011;36256;42.154;23.002;2023-02-15T06:12:06;21.25;;;12.85;;
36629;SDS011;36256;42.154;23.002;2023-02-15T06:14:33;21.08;;;12.13;;
36629;SDS011;36256;42.154;23.002;2023-02-15T06:16:59;29.35;;;16.52;;
36629;SDS011;36256;42.154;23.002;2023-02-15T06:19:26;30.17;;;16.65;;
36629;SDS011;36256;42.154;23.002;2023-02-15T06:21:52;21.40;;;12.07;;
36629;SDS011;36256;42.154;23.002;2023-02-15T06:24:19;27.33;;;16.85;;
36629;SDS011;36256;42.154;23.002;2023-02-15T06:26:45;27.90;;;16.17;;
36629;SDS011;36256;42.154;23.002;2023-02-15T06:29:12;29.63;;;16.92;;
36629;SDS011;36256;42.154;23.002;2023-02-15T06:31:39;21.25;;;12.02;;
36629;SDS011;36256;42.154;23.002;2023-02-15T06:34:05;27.60;;;16.02;;
36629;SDS011;36256;42.154;23.002;2023-02-15T06:36:32;26.67;;;16.85;;
36629;SDS011;36256;42.154;23.002;2023-02-15T06:38:58;30.35;;;16.98;;
36629;SDS011;36256;42.154;23.002;2023-02-15T06:41:25;28.65;;;17.08;;
36629;SDS011;36256;42.154;23.002;2023-02-15T06:43:52;20.20;;;12.07;;
36629;SDS011;36256;42.154;23.002;2023-02-15T06:46:18;27.98;;;17.13;;
36629;SDS011;36256;42.154;23.002;2023-02-15T06:48:45;28.90;;;17.42;;
36629;SDS011;36256;42.154;23.002;2023-02-15T06:51:12;22.10;;;13.10;;
36629;SDS011;36256;42.154;23.002;2023-02-15T06:53:38;28.88;;;17.65;;
36629;SDS011;36256;42.154;23.002;2023-02-15T06:56:07;26.15;;;16.48;;
36629;SDS011;36256;42.154;23.002;2023-02-15T06:58:35;28.05;;;16.77;;
36629;SDS011;36256;42.154;23.002;2023-02-15T07:01:03;28.25;;;16.83;;
36629;SDS011;36256;42.154;23.002;2023-02-15T07:03:29;27.33;;;16.48;;
36629;SDS011;36256;42.154;23.002;2023-02-15T07:05:57;20.02;;;12.68;;
36629;SDS011;36256;42.154;23.002;2023-02-15T07:08:25;29.80;;;16.60;;
36629;SDS011;36256;42.154;23.002;2023-02-15T07:10:54;26.17;;;15.90;;
36629;SDS011;36256;42.154;23.002;2023-02-15T07:13:41;28.80;;;16.40;;
36629;SDS011;36256;42.154;23.002;2023-02-15T07:16:11;25.10;;;15.75;;
36629;SDS011;36256;42.154;23.002;2023-02-15T07:18:38;26.17;;;16.27;;
36629;SDS011;36256;42.154;23.002;2023-02-15T07:21:06;32.67;;;16.98;;
36629;SDS011;36256;42.154;23.002;2023-02-15T07:23:36;25.23;;;15.50;;
36629;SDS011;36256;42.154;23.002;2023-02-15T07:26:04;26.35;;;15.98;;
36629;SDS011;36256;42.154;23.002;2023-02-15T07:28:32;26.98;;;15.85;;
36629;SDS011;36256;42.154;23.002;2023-02-15T07:31:03;27.38;;;15.90;;
36629;SDS011;36256;42.154;23.002;2023-02-15T07:33:31;31.63;;;15.52;;
36629;SDS011;36256;42.154;23.002;2023-02-15T07:38:27;27.73;;;15.70;;
36629;SDS011;36256;42.154;23.002;2023-02-15T07:40:59;25.63;;;15.32;;
36629;SDS011;36256;42.154;23.002;2023-02-15T07:43:32;26.17;;;15.60;;
36629;SDS011;36256;42.154;23.002;2023-02-15T07:46:01;24.70;;;15.27;;
36629;SDS011;36256;42.154;23.002;2023-02-15T07:48:31;26.98;;;16.50;;
36629;SDS011;36256;42.154;23.002;2023-02-15T07:50:59;24.92;;;15.38;;
36629;SDS011;36256;42.154;23.002;2023-02-15T07:53:26;25.40;;;15.43;;
36629;SDS011;36256;42.154;23.002;2023-02-15T07:58:20;27.85;;;16.42;;
36629;SDS011;36256;42.154;23.002;2023-02-15T08:00:46;25.27;;;14.95;;
36629;SDS011;36256;42.154;23.002;2023-02-15T08:03:27;24.27;;;15.10;;
36629;SDS011;36256;42.154;23.002;2023-02-15T08:05:56;25.38;;;15.30;;
36629;SDS011;36256;42.154;23.002;2023-02-15T08:08:25;29.08;;;15.60;;
36629;SDS011;36256;42.154;23.002;2023-02-15T08:13:46;26.10;;;15.65;;
36629;SDS011;36256;42.154;23.002;2023-02-15T08:16:21;26.45;;;15.32;;
36629;SDS011;36256;42.154;23.002;2023-02-15T08:19:07;26.55;;;16.08;;
36629;SDS011;36256;42.154;23.002;2023-02-15T08:21:41;25.83;;;15.75;;
36629;SDS011;36256;42.154;23.002;2023-02-15T08:24:09;28.35;;;16.30;;
36629;SDS011;36256;42.154;23.002;2023-02-15T08:26:37;29.65;;;17.67;;
36629;SDS011;36256;42.154;23.002;2023-02-15T08:29:07;32.20;;;17.10;;
36629;SDS011;36256;42.154;23.002;2023-02-15T08:31:34;25.90;;;15.68;;
36629;SDS011;36256;42.154;23.002;2023-02-15T08:34:03;24.38;;;15.73;;
36629;SDS011;36256;42.154;23.002;2023-02-15T08:39:01;25.00;;;15.43;;
36629;SDS011;36256;42.154;23.002;2023-02-15T08:41:31;25.92;;;16.17;;
36629;SDS011;36256;42.154;23.002;2023-02-15T08:44:01;29.45;;;17.23;;
36629;SDS011;36256;42.154;23.002;2023-02-15T08:46:30;26.38;;;15.52;;
36629;SDS011;36256;42.154;23.002;2023-02-15T08:48:59;24.33;;;15.40;;
36629;SDS011;36256;42.154;23.002;2023-02-15T08:51:29;24.20;;;15.65;;
36629;SDS011;36256;42.154;23.002;2023-02-15T08:53:58;25.08;;;15.57;;
36629;SDS011;36256;42.154;23.002;2023-02-15T08:56:28;24.55;;;15.88;;
36629;SDS011;36256;42.154;23.002;2023-02-15T08:58:58;26.92;;;16.23;;
36629;SDS011;36256;42.154;23.002;2023-02-15T09:01:25;25.58;;;16.27;;
36629;SDS011;36256;42.154;23.002;2023-02-15T09:03:55;38.90;;;17.25;;
36629;SDS011;36256;42.154;23.002;2023-02-15T09:06:27;26.25;;;17.17;;
36629;SDS011;36256;42.154;23.002;2023-02-15T09:08:54;25.45;;;16.20;;
36629;SDS011;36256;42.154;23.002;2023-02-15T09:11:22;24.25;;;15.20;;
36629;SDS011;36256;42.154;23.002;2023-02-15T09:13:51;23.90;;;15.45;;
36629;SDS011;36256;42.154;23.002;2023-02-15T09:16:29;24.42;;;15.60;;
36629;SDS011;36256;42.154;23.002;2023-02-15T09:18:58;46.72;;;17.15;;
36629;SDS011;36256;42.154;23.002;2023-02-15T09:21:25;26.95;;;16.67;;
36629;SDS011;36256;42.154;23.002;2023-02-15T09:23:55;26.55;;;17.15;;
36629;SDS011;36256;42.154;23.002;2023-02-15T09:26:23;25.65;;;16.42;;
36629;SDS011;36256;42.154;23.002;2023-02-15T09:31:19;28.13;;;16.40;;
36629;SDS011;36256;42.154;23.002;2023-02-15T09:33:48;28.95;;;16.13;;
36629;SDS011;36256;42.154;23.002;2023-02-15T09:36:25;25.65;;;16.05;;
36629;SDS011;36256;42.154;23.002;2023-02-15T09:39:01;24.77;;;16.08;;
36629;SDS011;36256;42.154;23.002;2023-02-15T09:54:46;23.63;;;15.65;;
36629;SDS011;36256;42.154;23.002;2023-02-15T10:11:03;23.48;;;15.15;;
36629;SDS011;36256;42.154;23.002;2023-02-15T10:19:07;22.80;;;15.43;;
36629;SDS011;36256;42.154;23.002;2023-02-15T10:24:37;24.40;;;15.35;;
36629;SDS011;36256;42.154;23.002;2023-02-15T10:27:18;23.50;;;15.48;;
36629;SDS011;36256;42.154;23.002;2023-02-15T10:30:08;22.33;;;14.65;;
36629;SDS011;36256;42.154;23.002;2023-02-15T10:32:51;24.20;;;16.40;;
36629;SDS011;36256;42.154;23.002;2023-02-15T10:53:57;27.70;;;17.13;;
36629;SDS011;36256;42.154;23.002;2023-02-15T10:56:49;23.77;;;15.90;;
36629;SDS011;36256;42.154;23.002;2023-02-15T11:02:14;25.73;;;17.15;;
36629;SDS011;36256;42.154;23.002;2023-02-15T11:07:47;22.27;;;15.32;;
36629;SDS011;36256;42.154;23.002;2023-02-15T11:13:04;22.20;;;16.13;;
36629;SDS011;36256;42.154;23.002;2023-02-15T11:15:40;20.83;;;15.43;;
36629;SDS011;36256;42.154;23.002;2023-02-15T11:18:13;24.65;;;16.08;;
36629;SDS011;36256;42.154;23.002;2023-02-15T11:21:03;24.67;;;16.70;;
36629;SDS011;36256;42.154;23.002;2023-02-15T11:23:40;22.50;;;15.38;;
36629;SDS011;36256;42.154;23.002;2023-02-15T11:29:12;21.48;;;15.55;;
36629;SDS011;36256;42.154;23.002;2023-02-15T11:31:50;22.83;;;15.57;;
36629;SDS011;36256;42.154;23.002;2023-02-15T11:36:48;20.60;;;15.27;;
36629;SDS011;36256;42.154;23.002;2023-02-15T11:39:19;21.92;;;15.70;;
36629;SDS011;36256;42.154;23.002;2023-02-15T11:41:49;24.40;;;15.00;;
36629;SDS011;36256;42.154;23.002;2023-02-15T11:44:28;23.38;;;15.40;;
36629;SDS011;36256;42.154;23.002;2023-02-15T11:46:59;20.00;;;14.50;;
36629;SDS011;36256;42.154;23.002;2023-02-15T11:49:31;23.23;;;14.88;;
36629;SDS011;36256;42.154;23.002;2023-02-15T11:52:00;20.10;;;13.98;;
36629;SDS011;36256;42.154;23.002;2023-02-15T11:54:32;21.65;;;15.07;;
36629;SDS011;36256;42.154;23.002;2023-02-15T11:57:23;28.85;;;15.60;;
36629;SDS011;36256;42.154;23.002;2023-02-15T12:00:46;35.05;;;15.05;;
36629;SDS011;36256;42.154;23.002;2023-02-15T12:03:11;27.83;;;16.48;;
36629;SDS011;36256;42.154;23.002;2023-02-15T12:05:42;21.17;;;14.45;;
36629;SDS011;36256;42.154;23.002;2023-02-15T12:08:17;19.70;;;14.40;;
36629;SDS011;36256;42.154;23.002;2023-02-15T12:10:52;22.05;;;14.15;;
36629;SDS011;36256;42.154;23.002;2023-02-15T12:14:10;17.77;;;12.73;;
36629;SDS011;36256;42.154;23.002;2023-02-15T12:19:19;21.83;;;15.13;;
36629;SDS011;36256;42.154;23.002;2023-02-15T12:21:59;21.17;;;14.10;;
36629;SDS011;36256;42.154;23.002;2023-02-15T12:24:36;23.67;;;14.48;;
36629;SDS011;36256;42.154;23.002;2023-02-15T12:29:49;23.15;;;14.00;;
36629;SDS011;36256;42.154;23.002;2023-02-15T12:32:28;20.98;;;13.77;;
36629;SDS011;36256;42.154;23.002;2023-02-15T12:37:33;20.00;;;13.18;;
36629;SDS011;36256;42.154;23.002;2023-02-15T12:42:44;17.73;;;12.23;;
36629;SDS011;36256;42.154;23.002;2023-02-15T12:47:47;20.70;;;12.60;;
36629;SDS011;36256;42.154;23.002;2023-02-15T12:50:34;20.05;;;13.15;;
36629;SDS011;36256;42.154;23.002;2023-02-15T12:55:40;16.75;;;11.55;;
36629;SDS011;36256;42.154;23.002;2023-02-15T12:58:17;19.05;;;11.98;;
36629;SDS011;36256;42.154;23.002;2023-02-15T13:00:46;20.42;;;12.68;;
36629;SDS011;36256;42.154;23.002;2023-02-15T13:03:22;19.45;;;12.13;;
36629;SDS011;36256;42.154;23.002;2023-02-15T13:05:53;18.60;;;12.48;;
36629;SDS011;36256;42.154;23.002;2023-02-15T13:08:31;18.25;;;12.00;;
36629;SDS011;36256;42.154;23.002;2023-02-15T13:13:31;20.10;;;12.35;;
36629;SDS011;36256;42.154;23.002;2023-02-15T13:16:08;17.73;;;12.50;;
36629;SDS011;36256;42.154;23.002;2023-02-15T13:18:42;19.35;;;12.20;;
36629;SDS011;36256;42.154;23.002;2023-02-15T13:21:12;19.45;;;13.27;;
36629;SDS011;36256;42.154;23.002;2023-02-15T13:23:43;18.00;;;12.57;;
36629;SDS011;36256;42.154;23.002;2023-02-15T13:26:15;16.60;;;12.38;;
36629;SDS011;36256;42.154;23.002;2023-02-15T13:28:47;23.35;;;12.38;;
36629;SDS011;36256;42.154;23.002;2023-02-15T13:31:18;20.23;;;12.20;;
36629;SDS011;36256;42.154;23.002;2023-02-15T13:34:08;20.75;;;11.88;;
36629;SDS011;36256;42.154;23.002;2023-02-15T13:48:12;30.80;;;14.85;;
36629;SDS011;36256;42.154;23.002;2023-02-15T13:53:34;21.20;;;13.93;;
36629;SDS011;36256;42.154;23.002;2023-02-15T14:01:42;25.60;;;16.25;;
36629;SDS011;36256;42.154;23.002;2023-02-15T14:13:00;24.88;;;14.38;;
36629;SDS011;36256;42.154;23.002;2023-02-15T14:18:34;26.77;;;14.63;;
36629;SDS011;36256;42.154;23.002;2023-02-15T14:24:08;34.42;;;19.50;;
36629;SDS011;36256;42.154;23.002;2023-02-15T14:32:30;21.00;;;13.25;;
36629;SDS011;36256;42.154;23.002;2023-02-15T14:35:17;25.70;;;14.32;;
36629;SDS011;36256;42.154;23.002;2023-02-15T14:40:39;24.35;;;15.95;;
36629;SDS011;36256;42.154;23.002;2023-02-15T14:56:45;31.15;;;16.52;;
36629;SDS011;36256;42.154;23.002;2023-02-15T14:59:14;25.90;;;14.82;;
36629;SDS011;36256;42.154;23.002;2023-02-15T15:01:51;26.83;;;16.98;;
36629;SDS011;36256;42.154;23.002;2023-02-15T15:04:29;35.47;;;16.73;;
36629;SDS011;36256;42.154;23.002;2023-02-15T15:09:39;75.85;;;19.67;;
36629;SDS011;36256;42.154;23.002;2023-02-15T15:14:47;30.33;;;16.98;;
36629;SDS011;36256;42.154;23.002;2023-02-15T15:20:01;29.67;;;19.88;;
36629;SDS011;36256;42.154;23.002;2023-02-15T15:27:44;24.10;;;16.05;;
36629;SDS011;36256;42.154;23.002;2023-02-15T15:32:52;25.17;;;16.35;;
36629;SDS011;36256;42.154;23.002;2023-02-15T15:47:06;41.65;;;26.85;;
36629;SDS011;36256;42.154;23.002;2023-02-15T15:49:45;38.13;;;25.38;;
36629;SDS011;36256;42.154;23.002;2023-02-15T15:54:44;32.95;;;22.38;;
36629;SDS011;36256;42.154;23.002;2023-02-15T15:57:38;36.53;;;20.30;;
36629;SDS011;36256;42.154;23.002;2023-02-15T16:00:16;32.75;;;22.88;;
36629;SDS011;36256;42.154;23.002;2023-02-15T16:03:00;45.45;;;28.60;;
36629;SDS011;36256;42.154;23.002;2023-02-15T16:05:33;61.90;;;38.30;;
36629;SDS011;36256;42.154;23.002;2023-02-15T16:08:02;48.00;;;30.55;;
36629;SDS011;36256;42.154;23.002;2023-02-15T16:10:29;38.08;;;25.90;;
36629;SDS011;36256;42.154;23.002;2023-02-15T16:13:00;51.13;;;25.52;;
36629;SDS011;36256;42.154;23.002;2023-02-15T16:15:44;37.75;;;22.02;;
36629;SDS011;36256;42.154;23.002;2023-02-15T16:18:16;23.15;;;15.75;;
36629;SDS011;36256;42.154;23.002;2023-02-15T16:23:39;26.33;;;15.68;;
36629;SDS011;36256;42.154;23.002;2023-02-15T16:28:51;39.03;;;24.17;;
36629;SDS011;36256;42.154;23.002;2023-02-15T16:31:20;28.35;;;19.15;;
36629;SDS011;36256;42.154;23.002;2023-02-15T16:33:54;32.53;;;19.98;;
36629;SDS011;36256;42.154;23.002;2023-02-15T16:41:23;27.23;;;17.08;;
36629;SDS011;36256;42.154;23.002;2023-02-15T16:43:54;24.13;;;16.48;;
36629;SDS011;36256;42.154;23.002;2023-02-15T16:46:25;26.92;;;16.88;;
36629;SDS011;36256;42.154;23.002;2023-02-15T16:49:05;26.92;;;17.20;;
36629;SDS011;36256;42.154;23.002;2023-02-15T16:51:40;24.38;;;16.40;;
36629;SDS011;36256;42.154;23.002;2023-02-15T16:54:14;28.58;;;16.73;;
36629;SDS011;36256;42.154;23.002;2023-02-15T16:56:46;26.05;;;16.52;;
36629;SDS011;36256;42.154;23.002;2023-02-15T17:01:59;25.10;;;16.10;;
36629;SDS011;36256;42.154;23.002;2023-02-15T17:04:29;25.45;;;17.13;;
36629;SDS011;36256;42.154;23.002;2023-02-15T17:06:59;28.90;;;16.73;;
36629;SDS011;36256;42.154;23.002;2023-02-15T17:09:50;27.50;;;17.55;;
36629;SDS011;36256;42.154;23.002;2023-02-15T17:17:57;30.60;;;19.05;;
36629;SDS011;36256;42.154;23.002;2023-02-15T17:20:26;31.98;;;20.45;;
36629;SDS011;36256;42.154;23.002;2023-02-15T17:25:23;51.58;;;29.15;;
36629;SDS011;36256;42.154;23.002;2023-02-15T17:27:59;36.28;;;22.98;;
36629;SDS011;36256;42.154;23.002;2023-02-15T17:30:33;35.17;;;21.15;;
36629;SDS011;36256;42.154;23.002;2023-02-15T17:33:04;30.25;;;19.50;;
36629;SDS011;36256;42.154;23.002;2023-02-15T17:38:38;45.20;;;27.73;;
36629;SDS011;36256;42.154;23.002;2023-02-15T17:41:06;40.10;;;23.35;;
36629;SDS011;36256;42.154;23.002;2023-02-15T17:43:33;46.03;;;23.40;;
36629;SDS011;36256;42.154;23.002;2023-02-15T17:46:00;32.10;;;20.60;;
36629;SDS011;36256;42.154;23.002;2023-02-15T17:48:33;26.15;;;16.15;;
36629;SDS011;36256;42.154;23.002;2023-02-15T17:51:03;29.63;;;18.08;;
36629;SDS011;36256;42.154;23.002;2023-02-15T17:53:32;33.08;;;18.45;;
36629;SDS011;36256;42.154;23.002;2023-02-15T17:55:59;31.10;;;19.58;;
36629;SDS011;36256;42.154;23.002;2023-02-15T17:58:36;28.23;;;17.83;;
36629;SDS011;36256;42.154;23.002;2023-02-15T18:01:07;31.80;;;18.05;;
36629;SDS011;36256;42.154;23.002;2023-02-15T18:03:59;29.97;;;18.83;;
36629;SDS011;36256;42.154;23.002;2023-02-15T18:06:44;30.58;;;19.85;;
36629;SDS011;36256;42.154;23.002;2023-02-15T18:09:29;32.15;;;20.08;;
36629;SDS011;36256;42.154;23.002;2023-02-15T18:14:46;39.28;;;22.98;;
36629;SDS011;36256;42.154;23.002;2023-02-15T18:17:13;33.83;;;20.52;;
36629;SDS011;36256;42.154;23.002;2023-02-15T18:19:42;30.50;;;19.42;;
36629;SDS011;36256;42.154;23.002;2023-02-15T18:22:11;28.77;;;19.00;;
36629;SDS011;36256;42.154;23.002;2023-02-15T18:24:39;29.00;;;19.08;;
36629;SDS011;36256;42.154;23.002;2023-02-15T18:27:06;31.88;;;21.33;;
36629;SDS011;36256;42.154;23.002;2023-02-15T18:29:33;37.55;;;22.55;;
36629;SDS011;36256;42.154;23.002;2023-02-15T18:32:00;35.50;;;22.15;;
36629;SDS011;36256;42.154;23.002;2023-02-15T18:34:28;35.58;;;21.00;;
36629;SDS011;36256;42.154;23.002;2023-02-15T18:36:57;31.52;;;18.42;;
36629;SDS011;36256;42.154;23.002;2023-02-15T18:42:17;28.40;;;17.38;;
36629;SDS011;36256;42.154;23.002;2023-02-15T18:44:48;32.15;;;19.52;;
36629;SDS011;36256;42.154;23.002;2023-02-15T18:47:16;32.47;;;19.92;;
36629;SDS011;36256;42.154;23.002;2023-02-15T18:49:43;32.53;;;19.58;;
36629;SDS011;36256;42.154;23.002;2023-02-15T18:52:13;29.75;;;19.38;;
36629;SDS011;36256;42.154;23.002;2023-02-15T18:54:42;31.73;;;18.80;;